createdAt,value
2022-08-11T04:03:49.706Z,16.10
2022-08-11T04:06:25.767Z,16.10
2022-08-11T04:09:01.368Z,16.10
2022-08-11T04:11:37.587Z,16.10
2022-08-11T04:14:35.389Z,16.10
2022-08-11T04:17:12.025Z,16.10
2022-08-11T04:20:04.588Z,16.10
2022-08-11T04:22:37.937Z,16.20
2022-08-11T04:24:55.495Z,16.20
2022-08-11T04:27:19.180Z,16.20
2022-08-11T04:30:03.047Z,16.20
2022-08-11T04:32:26.660Z,16.10
2022-08-11T04:34:41.425Z,16.10
2022-08-11T04:37:34.992Z,16.10
2022-08-11T04:39:56.791Z,16.10
2022-08-11T04:43:09.929Z,16.10
2022-08-11T04:45:56.730Z,16.10
2022-08-11T04:48:56.510Z,16.20
2022-08-11T04:51:24.848Z,16.20
2022-08-11T04:54:04.092Z,16.20
2022-08-11T04:56:30.102Z,16.20
2022-08-11T04:59:18.760Z,16.30
2022-08-11T05:01:42.230Z,16.30
2022-08-11T05:04:32.982Z,16.30
2022-08-11T05:07:08.302Z,16.40
2022-08-11T05:09:27.334Z,16.40
2022-08-11T05:11:38.771Z,16.40
2022-08-11T05:14:10.611Z,16.40
2022-08-11T05:16:35.900Z,16.50
2022-08-11T05:19:16.327Z,16.50
2022-08-11T05:21:46.670Z,16.60
2022-08-11T05:24:21.858Z,16.60
2022-08-11T05:26:48.860Z,16.70
2022-08-11T05:29:21.219Z,16.90
2022-08-11T05:32:01.767Z,16.90
2022-08-11T05:34:51.344Z,17.00
2022-08-11T05:37:29.223Z,17.10
2022-08-11T05:40:09.424Z,17.10
2022-08-11T05:42:31.228Z,17.20
2022-08-11T05:44:54.470Z,17.30
2022-08-11T05:47:16.786Z,17.40
2022-08-11T05:49:37.274Z,17.50
2022-08-11T05:52:12.990Z,17.50
2022-08-11T05:54:37.657Z,17.60
2022-08-11T05:56:50.802Z,17.60
2022-08-11T05:58:54.962Z,17.70
2022-08-11T06:00:56.916Z,17.80
2022-08-11T06:03:07.457Z,17.90
2022-08-11T06:05:13.048Z,17.90
2022-08-11T06:07:17.690Z,18.00
2022-08-11T06:09:34.951Z,18.10
2022-08-11T06:11:51.759Z,18.10
2022-08-11T06:13:58.337Z,18.20
2022-08-11T06:16:06.695Z,18.20
2022-08-11T06:18:12.570Z,18.30
2022-08-11T06:20:19.725Z,18.40
2022-08-11T06:22:23.533Z,18.40
2022-08-11T06:24:30.234Z,18.50
2022-08-11T06:27:01.603Z,18.60
2022-08-11T06:29:07.160Z,18.70
2022-08-11T06:31:17.156Z,18.80
2022-08-11T06:33:38.443Z,18.90
2022-08-11T06:35:59.602Z,19.00
2022-08-11T06:38:01.265Z,19.10
2022-08-11T06:40:30.016Z,19.20
2022-08-11T06:42:53.354Z,19.30
2022-08-11T06:45:12.726Z,19.40
2022-08-11T06:47:18.220Z,19.60
2022-08-11T06:49:47.494Z,19.80
2022-08-11T06:51:49.643Z,19.90
2022-08-11T06:54:05.118Z,20.10
2022-08-11T06:56:31.359Z,20.40
2022-08-11T06:59:07.619Z,20.70
2022-08-11T07:01:16.909Z,21.20
2022-08-11T07:03:21.659Z,22.90
2022-08-11T07:05:58.856Z,24.50
2022-08-11T07:08:52.861Z,26.10
2022-08-11T07:11:45.860Z,27.40
2022-08-11T07:14:10.946Z,28.50
2022-08-11T07:16:32.909Z,29.30
2022-08-11T07:18:56.148Z,29.90
2022-08-11T07:22:01.852Z,30.40
2022-08-11T07:24:17.985Z,30.80
2022-08-11T07:26:42.895Z,31.30
2022-08-11T07:29:04.139Z,31.50
2022-08-11T07:31:14.163Z,31.40
2022-08-11T07:34:08.334Z,31.50
2022-08-11T07:35:56.542Z,31.70
2022-08-11T07:38:04.883Z,32.10
2022-08-11T07:40:12.152Z,32.60
2022-08-11T07:42:23.956Z,33.10
2022-08-11T07:44:35.346Z,33.30
2022-08-11T07:47:01.365Z,33.40
2022-08-11T07:49:27.447Z,33.40
2022-08-11T07:51:48.084Z,33.60
2022-08-11T07:56:05.819Z,33.30
2022-08-11T07:58:31.608Z,33.20
2022-08-11T08:01:21.831Z,33.40
2022-08-11T08:03:54.008Z,33.20
2022-08-11T08:06:35.995Z,33.20
2022-08-11T08:08:59.669Z,33.60
2022-08-11T08:11:27.356Z,33.70
2022-08-11T08:13:53.101Z,33.90
2022-08-11T08:16:19.414Z,34.00
2022-08-11T08:18:26.036Z,33.80
2022-08-11T08:20:49.323Z,33.60
2022-08-11T08:22:59.451Z,33.70
2022-08-11T08:25:03.523Z,34.00
2022-08-11T08:27:05.875Z,34.30
2022-08-11T08:29:27.554Z,34.40
2022-08-11T08:31:30.322Z,34.60
2022-08-11T08:33:34.254Z,34.10
2022-08-11T08:35:54.435Z,34.50
2022-08-11T08:37:59.737Z,34.50
2022-08-11T08:40:03.806Z,34.60
2022-08-11T08:42:11.706Z,35.10
2022-08-11T08:46:47.402Z,35.20
2022-08-11T08:48:54.568Z,35.00
2022-08-11T08:51:29.075Z,35.20
2022-08-11T08:53:56.488Z,35.20
2022-08-11T08:56:08.517Z,34.90
2022-08-11T08:58:16.514Z,34.70
2022-08-11T09:00:23.652Z,34.50
2022-08-11T09:02:34.654Z,34.90
2022-08-11T09:04:38.911Z,35.00
2022-08-11T09:06:52.275Z,35.20
2022-08-11T09:09:02.159Z,35.30
2022-08-11T09:11:24.502Z,35.40
2022-08-11T09:13:28.773Z,35.40
2022-08-11T09:15:31.682Z,35.40
2022-08-11T09:17:44.675Z,35.20
2022-08-11T09:19:49.500Z,35.30
2022-08-11T09:22:20.613Z,35.30
2022-08-11T09:24:42.294Z,35.30
2022-08-11T09:27:10.103Z,35.00
2022-08-11T09:29:15.140Z,35.20
2022-08-11T09:31:18.469Z,35.50
2022-08-11T09:33:25.496Z,35.50
2022-08-11T09:35:30.019Z,35.60
2022-08-11T09:37:56.670Z,35.40
2022-08-11T09:40:18.266Z,35.40
2022-08-11T09:42:23.918Z,35.50
2022-08-11T09:44:45.952Z,35.50
2022-08-11T09:46:55.782Z,35.80
2022-08-11T09:49:00.552Z,36.30
2022-08-11T09:51:04.655Z,36.30
2022-08-11T09:53:36.413Z,36.30
2022-08-11T09:55:34.143Z,36.00
2022-08-11T09:58:03.736Z,35.80
2022-08-11T10:00:14.444Z,35.90
2022-08-11T10:02:18.643Z,36.00
2022-08-11T10:04:42.875Z,36.10
2022-08-11T10:07:01.839Z,35.60
2022-08-11T10:09:08.256Z,35.70
2022-08-11T10:11:15.171Z,35.90
2022-08-11T10:14:32.010Z,36.20
2022-08-11T10:16:14.641Z,36.80
2022-08-11T10:18:42.310Z,37.20
2022-08-11T10:20:51.922Z,36.80
2022-08-11T10:23:12.317Z,37.10
2022-08-11T10:25:36.094Z,37.10
2022-08-11T10:28:32.776Z,37.00
2022-08-11T10:30:23.747Z,36.90
2022-08-11T10:32:58.630Z,36.90
2022-08-11T10:35:09.891Z,36.80
2022-08-11T10:37:15.400Z,36.90
2022-08-11T10:39:22.084Z,37.10
2022-08-11T10:42:06.837Z,37.10
2022-08-11T10:44:11.799Z,36.70
2022-08-11T10:46:32.356Z,36.80
2022-08-11T10:48:41.182Z,36.70
2022-08-11T10:51:05.678Z,36.40
2022-08-11T10:53:28.525Z,36.40
2022-08-11T10:55:49.728Z,36.40
2022-08-11T10:58:12.239Z,36.60
2022-08-11T11:00:18.267Z,36.70
2022-08-11T11:02:20.756Z,36.70
2022-08-11T11:04:40.848Z,36.70
2022-08-11T11:07:03.668Z,36.40
2022-08-11T11:09:13.654Z,35.90
2022-08-11T11:11:18.359Z,36.30
2022-08-11T11:13:53.217Z,36.70
2022-08-11T11:16:24.595Z,36.80
2022-08-11T11:18:37.883Z,36.30
2022-08-11T11:20:48.318Z,36.10
2022-08-11T11:23:00.693Z,35.90
2022-08-11T11:25:16.625Z,36.00
2022-08-11T11:27:46.531Z,36.20
2022-08-11T11:30:07.164Z,36.60
2022-08-11T11:33:02.524Z,36.30
2022-08-11T11:35:17.408Z,36.40
2022-08-11T11:37:23.936Z,36.20
2022-08-11T11:39:28.239Z,36.20
2022-08-11T11:41:30.154Z,35.70
2022-08-11T11:43:43.458Z,35.50
2022-08-11T11:45:48.018Z,35.70
2022-08-11T11:47:53.927Z,35.50
2022-08-11T11:49:56.854Z,35.40
2022-08-11T11:52:03.127Z,35.70
2022-08-11T11:54:06.344Z,36.00
2022-08-11T11:56:18.608Z,36.40
2022-08-11T11:58:40.872Z,36.80
2022-08-11T12:01:05.702Z,36.80
2022-08-11T12:03:11.517Z,36.80
2022-08-11T12:05:19.509Z,36.80
2022-08-11T12:07:47.665Z,36.50
2022-08-11T12:10:08.232Z,36.20
2022-08-11T12:12:28.912Z,36.20
2022-08-11T12:14:33.395Z,36.00
2022-08-11T12:16:39.268Z,36.00
2022-08-11T12:18:43.324Z,36.10
2022-08-11T12:20:46.067Z,36.30
2022-08-11T12:23:07.693Z,36.40
2022-08-11T12:25:29.708Z,35.70
2022-08-11T12:27:33.240Z,35.60
2022-08-11T12:29:43.792Z,34.90
2022-08-11T12:31:49.860Z,35.20
2022-08-11T12:34:06.961Z,35.40
2022-08-11T12:36:16.269Z,36.00
2022-08-11T12:38:26.027Z,36.40
2022-08-11T12:43:37.938Z,36.60
2022-08-11T12:45:43.229Z,36.70
2022-08-11T12:48:59.027Z,37.00
2022-08-11T12:50:53.989Z,37.20
2022-08-11T12:52:58.606Z,37.50
2022-08-11T12:55:14.018Z,37.30
2022-08-11T12:57:45.815Z,37.50
2022-08-11T13:00:10.464Z,37.60
2022-08-11T13:02:39.052Z,37.10
2022-08-11T13:05:04.098Z,37.20
2022-08-11T13:07:07.360Z,37.40
2022-08-11T13:09:14.228Z,37.40
2022-08-11T13:11:55.663Z,37.50
2022-08-11T13:14:01.378Z,37.60
2022-08-11T13:16:06.645Z,37.40
2022-08-11T13:18:12.492Z,37.50
2022-08-11T13:20:20.585Z,37.80
2022-08-11T13:22:24.446Z,38.00
2022-08-11T13:24:34.590Z,37.80
2022-08-11T13:26:47.507Z,37.80
2022-08-11T13:28:58.634Z,37.80
2022-08-11T13:31:15.918Z,38.10
2022-08-11T13:33:19.853Z,38.30
2022-08-11T13:35:23.651Z,38.10
2022-08-11T13:38:18.739Z,38.10
2022-08-11T13:40:02.916Z,38.00
2022-08-11T13:42:22.442Z,37.80
2022-08-11T13:44:27.676Z,38.00
2022-08-11T13:46:29.928Z,38.00
2022-08-11T13:48:35.151Z,37.50
2022-08-11T13:51:01.125Z,37.40
2022-08-11T13:53:03.019Z,37.40
2022-08-11T13:55:08.721Z,37.40
2022-08-11T13:58:08.674Z,37.20
2022-08-11T13:59:53.706Z,37.00
2022-08-11T14:02:22.923Z,36.70
2022-08-11T14:04:43.343Z,37.20
2022-08-11T14:06:50.747Z,37.40
2022-08-11T14:09:09.584Z,37.20
2022-08-11T14:12:22.941Z,37.20
2022-08-11T14:14:00.625Z,37.40
2022-08-11T14:16:18.457Z,37.70
2022-08-11T14:18:23.708Z,37.70
2022-08-11T14:20:54.293Z,37.80
2022-08-11T14:23:00.188Z,38.00
2022-08-11T14:25:04.064Z,37.10
2022-08-11T14:28:31.984Z,37.10
2022-08-11T14:29:47.872Z,37.10
2022-08-11T14:32:04.129Z,37.10
2022-08-11T14:34:10.500Z,36.80
2022-08-11T14:36:15.918Z,36.70
2022-08-11T14:38:19.722Z,36.90
2022-08-11T14:40:40.437Z,36.70
2022-08-11T14:43:01.066Z,36.50
2022-08-11T14:45:57.711Z,36.60
2022-08-11T14:47:57.384Z,36.40
2022-08-11T14:50:11.322Z,36.70
2022-08-11T14:52:18.032Z,36.90
2022-08-11T14:54:38.655Z,36.80
2022-08-11T14:56:41.098Z,36.70
2022-08-11T14:58:43.394Z,36.30
2022-08-11T15:00:46.339Z,36.00
2022-08-11T15:03:10.440Z,35.80
2022-08-11T15:05:13.628Z,35.70
2022-08-11T15:07:17.235Z,35.50
2022-08-11T15:09:23.312Z,35.30
2022-08-11T15:11:48.673Z,35.20
2022-08-11T15:13:51.229Z,35.10
2022-08-11T15:16:12.565Z,35.20
2022-08-11T15:18:17.231Z,35.40
2022-08-11T15:20:41.218Z,35.30
2022-08-11T15:23:01.647Z,35.20
2022-08-11T15:25:03.962Z,34.90
2022-08-11T15:27:37.941Z,35.00
2022-08-11T15:30:02.552Z,35.00
2022-08-11T15:32:21.416Z,34.90
2022-08-11T15:34:52.511Z,34.90
2022-08-11T15:37:21.529Z,34.90
2022-08-11T15:39:31.777Z,34.70
2022-08-11T15:42:02.848Z,34.60
2022-08-11T15:44:51.265Z,34.50
2022-08-11T15:46:59.296Z,34.40
2022-08-11T15:49:11.443Z,34.50
2022-08-11T15:51:25.543Z,34.50
2022-08-11T15:53:41.024Z,34.00
2022-08-11T15:55:45.603Z,33.60
2022-08-11T15:58:07.958Z,33.50
2022-08-11T16:00:28.766Z,33.40
2022-08-11T16:02:50.061Z,33.20
2022-08-11T16:04:54.162Z,33.10
2022-08-11T16:07:05.093Z,33.10
2022-08-11T16:09:13.024Z,33.00
2022-08-11T16:11:21.348Z,32.90
2022-08-11T16:13:24.330Z,32.80
2022-08-11T16:15:44.940Z,32.80
2022-08-11T16:17:53.969Z,32.90
2022-08-11T16:19:58.818Z,32.90
2022-08-11T16:22:03.082Z,32.70
2022-08-11T16:25:58.164Z,32.50
2022-08-11T16:27:07.804Z,32.70
2022-08-11T16:29:02.099Z,32.70
2022-08-11T16:31:10.673Z,32.30
2022-08-11T16:33:49.137Z,32.10
2022-08-11T16:35:56.892Z,32.00
2022-08-11T16:38:19.850Z,31.80
2022-08-11T16:40:22.713Z,31.50
2022-08-11T16:43:05.412Z,31.00
2022-08-11T16:45:24.706Z,30.80
2022-08-11T16:48:03.503Z,30.50
2022-08-11T16:49:53.221Z,30.30
2022-08-11T16:51:55.943Z,30.00
2022-08-11T16:54:05.973Z,29.90
2022-08-11T16:56:12.098Z,29.80
2022-08-11T16:58:33.872Z,29.70
2022-08-11T17:00:37.004Z,29.50
2022-08-11T17:03:10.635Z,29.50
2022-08-11T17:05:38.250Z,29.90
2022-08-11T17:08:02.323Z,29.90
2022-08-11T17:10:31.699Z,30.00
2022-08-11T17:13:09.094Z,30.10
2022-08-11T17:15:38.386Z,30.30
2022-08-11T17:17:40.658Z,30.50
2022-08-11T17:20:40.620Z,30.40
2022-08-11T17:22:31.727Z,30.30
2022-08-11T17:24:40.604Z,30.10
2022-08-11T17:26:58.825Z,30.00
2022-08-11T17:29:01.860Z,29.90
2022-08-11T17:31:23.922Z,30.00
2022-08-11T17:33:45.403Z,30.00
2022-08-11T17:35:47.944Z,29.90
2022-08-11T17:37:51.272Z,29.50
2022-08-11T17:39:55.806Z,29.10
2022-08-11T17:42:19.146Z,28.90
2022-08-11T17:44:39.709Z,28.40
2022-08-11T17:47:06.115Z,28.00
2022-08-11T17:49:11.307Z,27.50
2022-08-11T17:51:37.991Z,27.00
2022-08-11T17:54:18.201Z,26.70
2022-08-11T17:56:45.629Z,26.30
2022-08-11T17:59:09.334Z,26.00
2022-08-11T18:01:12.555Z,25.80
2022-08-11T18:03:32.828Z,25.60
2022-08-11T18:05:37.193Z,25.30
2022-08-11T18:08:00.359Z,25.10
2022-08-11T18:10:23.828Z,24.90
2022-08-11T18:12:44.316Z,24.70
2022-08-11T18:15:09.482Z,24.60
2022-08-11T18:17:31.023Z,24.50
2022-08-11T18:19:52.714Z,24.30
2022-08-11T18:22:25.234Z,24.20
2022-08-11T18:24:48.911Z,24.00
2022-08-11T18:27:12.975Z,23.90
2022-08-11T18:29:42.033Z,23.80
2022-08-11T18:32:06.808Z,23.60
2022-08-11T18:34:34.782Z,23.50
2022-08-11T18:37:03.921Z,23.40
2022-08-11T18:39:28.473Z,23.30
2022-08-11T18:41:53.829Z,23.10
2022-08-11T18:44:17.788Z,23.00
2022-08-11T18:46:41.765Z,22.90
2022-08-11T18:49:15.692Z,22.80
2022-08-11T18:51:37.424Z,22.70
2022-08-11T18:54:01.258Z,22.60
2022-08-11T18:56:21.894Z,22.60
2022-08-11T18:58:48.009Z,22.50
2022-08-11T19:01:11.421Z,22.40
2022-08-11T19:03:48.487Z,22.30
2022-08-11T19:06:38.954Z,22.20
2022-08-11T19:09:00.625Z,22.10
2022-08-11T19:11:21.386Z,22.00
2022-08-11T19:13:46.629Z,21.90
2022-08-11T19:16:09.627Z,21.80
2022-08-11T19:18:33.333Z,21.80
2022-08-11T19:20:55.273Z,21.70
2022-08-11T19:23:16.520Z,21.70
2022-08-11T19:25:39.916Z,21.60
2022-08-11T19:28:01.973Z,21.60
2022-08-11T19:30:23.408Z,21.50
2022-08-11T19:32:45.080Z,21.50
2022-08-11T19:35:06.857Z,21.50
2022-08-11T19:37:28.602Z,21.50
2022-08-11T19:39:49.573Z,21.40
2022-08-11T19:42:11.116Z,21.40
2022-08-11T19:44:34.527Z,21.30
2022-08-11T19:46:56.029Z,21.30
2022-08-11T19:49:18.874Z,21.30
2022-08-11T19:51:40.218Z,21.30
2022-08-11T19:54:01.940Z,21.30
2022-08-11T19:56:24.822Z,21.20
2022-08-11T19:58:46.310Z,21.20
2022-08-11T20:01:07.531Z,21.10
2022-08-11T20:03:30.742Z,21.10
2022-08-11T20:05:59.489Z,21.10
2022-08-11T20:08:20.611Z,21.10
2022-08-11T20:10:42.058Z,21.10
2022-08-11T20:13:03.569Z,21.10
2022-08-11T20:15:25.413Z,21.10
2022-08-11T20:17:48.305Z,21.10
2022-08-11T20:20:09.772Z,21.00
2022-08-11T20:22:32.746Z,20.90
2022-08-11T20:24:56.669Z,20.90
2022-08-11T20:27:24.932Z,20.90
2022-08-11T20:29:48.619Z,20.90
2022-08-11T20:32:09.981Z,20.80
2022-08-11T20:34:32.116Z,20.80
2022-08-11T20:36:55.115Z,20.90
2022-08-11T20:39:17.077Z,20.90
2022-08-11T20:41:58.078Z,20.90
2022-08-11T20:44:20.316Z,20.80
2022-08-11T20:46:44.149Z,20.80
2022-08-11T20:49:05.663Z,20.80
2022-08-11T20:51:27.177Z,20.90
2022-08-11T20:53:58.051Z,20.90
2022-08-11T20:56:19.441Z,20.90
2022-08-11T20:59:13.869Z,20.90
2022-08-11T21:01:37.530Z,20.90
2022-08-11T21:03:59.893Z,20.90
2022-08-11T21:06:26.351Z,20.90
2022-08-11T21:08:56.582Z,20.90
2022-08-11T21:11:27.903Z,20.90
2022-08-11T21:13:52.889Z,20.90
2022-08-11T21:16:26.497Z,20.90
2022-08-11T21:18:49.190Z,20.90
2022-08-11T21:21:10.846Z,20.90
2022-08-11T21:23:37.724Z,20.90
2022-08-11T21:26:07.064Z,20.90
2022-08-11T21:28:29.612Z,20.90
2022-08-11T21:30:51.058Z,20.90
2022-08-11T21:33:17.525Z,20.80
2022-08-11T21:35:45.029Z,20.80
2022-08-11T21:38:07.642Z,20.80
2022-08-11T21:40:32.804Z,20.70
2022-08-11T21:42:57.307Z,20.70
2022-08-11T21:45:19.879Z,20.80
2022-08-11T21:47:43.081Z,20.70
2022-08-11T21:50:05.666Z,20.70
2022-08-11T21:52:25.860Z,20.60
2022-08-11T21:54:46.364Z,20.60
2022-08-11T21:57:07.421Z,20.50
